Página principal
METAR-TAF:

METAR-TAF

Aeroportos :

Lagos, Nigéria

Aeroporto Internacional Murtala Muhammed

latitude: 06-35N, longitude: 003-20E, altura: 40 m

Observação actual do tempo

O boletim foi feito há 19 minutos, às 15:00 UTC
Vento 6 kt de su-sudeste
Temperatura 32°C
Humidade 63%
Pressão 1010 hPa
Visibilidade: 8000 m
Poucas nuvensa uma altura de 1400 ft

METAR: DNMM 161500Z 15006KT 8000 FEW014 32/24 Q1010 NOSIG

Hora: 16:19 (15:19 UTC)

Previsão

O boletim foi feito há 5 horas e 29 minutos, às 09:50 UTC
Previsão válida de 16 às 12 UTC a 17 às 18 UTC
Vento 4 kt de oeste
Visibilidade: 8000 m
Nuvens fragmentadasa uma altura de 1400 ft
Temporariamente
de 16 às 14 UTC a 16 às 19 UTC
Vento 10 kt de su-sudeste
Tornando-se
de 16 às 15 UTC a 16 às 17 UTC
Poucas nuvensa uma altura de 1200 ft
Temporariamente
de 17 às 05 UTC a 17 às 08 UTC
Visibilidade: 3000 m
neblina

TAF: DNMM 160950Z 1612/1718 28004KT 8000 BKN014 TEMPO 1614/1619 16010KT BECMG 1615/1617 FEW012 TEMPO 1705/1708 3000 BR

Observações e previsões do tempo de mais de 4000 aeroportos (mensagens METAR e TAF).

As estações disponíveis são os pontos amarelos e vermelhos sobre o mapa.

Mova o rato sobre o mapa para ver o nome da estação.

Depois clique no ponto para visualizar as observações e previsões meteorológicas.

Para alterar o mapa : clique nos botões verdes com uma cruz preta para aumentar o zoom; no botão verde com uma pitada de zoom; ou nas setas verdes para mapas adjacentes.


METAR-TAF: